TAF and METAR

Decoding for American and Canadian METARs and TAFs is not fully implemented.

Could not understand the following METAR

KEED 020756Z AUTO 19012KT 10SM CLR 32/02 A2976 RMK AO2 SLP040 T03220022 403940250

TAF for Needles Airport

KEED 020520Z 0206/0306 22007KT P6SM SKC FM021800 18010G18KT P6SM SKC FM030300 22007KT P6SM SKC
Report created 2. jul 07:20

between 2. jul 08:00 - 3. jul 08:00

wind 7 knots from SW (220°)